Data for 08/11/2018

Time Sea-Level Adjusted Pressure Absolute Pressure Temperature Relative Humidity Dew Point   
(mb) (inHg) (mb) (inHg) (C) (F) (%) (C) (F)
00:05 1020 30.12 850 25.1 22.6 72.7 23 0.3 32.6
00:10 1020 30.12 850 25.1 23.3 73.9 22 0.4 32.8
00:15 1020 30.12 850 25.1 23.2 73.8 22 0.5 33
00:20 1020 30.12 850 25.1 23.1 73.5 24 1.4 34.5
00:25 1020 30.12 850 25.1 22.3 72.1 25 1.4 34.4
00:30 1020 30.12 850 25.1 22.3 72.1 24 1.1 34
00:35 1020 30.12 850 25.1 22.3 72.1 24 0.9 33.6
00:40 1020 30.12 850 25.1 22.5 72.4 23 0.4 32.7
00:45 1020 30.12 850 25.1 22.9 73.2 23 0.8 33.4
00:50 1020 30.12 850 25.1 22.9 73.2 22 0.3 32.6
00:55 1020 30.12 850 25.1 23.1 73.5 22 0.5 32.8
01:00 1020 30.12 850 25.1 22.8 73.1 23 0.5 33
01:05 1020 30.12 850 25.1 22.5 72.4 23 0.4 32.7
01:10 1020 30.12 850 25.1 22.3 72.1 24 0.9 33.5
01:15 1020 30.12 850 25.1 21.8 71.2 27 2.4 36.3
01:20 1020 30.12 849 25.07 21.2 70.1 28 2.4 36.3
01:25 1020 30.12 849 25.07 21 69.8 26 1 33.7
01:30 1020 30.12 849 25.07 21.1 70.1 26 1.1 34
01:35 1020 30.12 849 25.07 21 69.8 26 1.1 33.9
01:40 1020 30.12 849 25.07 21.1 69.9 26 0.8 33.4
01:45 1020 30.12 849 25.07 21.1 69.9 26 1.2 34.1
01:50 1020 30.12 849 25.07 20.8 69.5 26 1 33.7
01:55 1020 30.12 849 25.07 20.6 69 27 1.1 33.9
02:00 1020 30.12 849 25.07 20.5 68.8 26 0.6 33.2
02:05 1020 30.12 849 25.07 20.6 69 26 0.6 33.1
02:10 1020 30.12 849 25.07 20.8 69.4 26 0.6 33.1
02:15 1020 30.12 850 25.1 20.9 69.7 25 0.5 32.9
02:20 1020 30.12 849 25.07 21 69.9 25 0.5 32.8
02:25 1020 30.12 849 25.07 21.1 69.9 25 0.4 32.7
02:30 1020 30.12 849 25.07 21.2 70.1 25 0.4 32.8
02:35 1020 30.12 849 25.07 21.1 69.9 25 0.5 32.8
02:40 1020 30.12 849 25.07 20.7 69.3 28 1.7 35
02:45 1020 30.12 849 25.07 20.3 68.5 27 0.9 33.7
02:50 1020 30.12 849 25.07 20.3 68.6 28 1.3 34.3
02:55 1020 30.12 849 25.07 20.4 68.7 30 2.2 36
03:00 1020 30.12 849 25.07 20.1 68.2 29 1.6 34.9
03:05 1020 30.12 849 25.07 19.8 67.7 29 1.6 34.9
03:10 1020 30.12 849 25.07 19.5 67 29 1 33.8
03:15 1020 30.12 849 25.07 19.4 66.9 29 0.8 33.5
03:20 1020 30.12 849 25.07 19.4 66.9 28 0.7 33.3
03:25 1020 30.12 849 25.07 19.4 66.9 28 0.6 33.1
03:30 1020 30.12 849 25.07 19.6 67.2 27 0.3 32.5
03:35 1020 30.12 849 25.07 20.2 68.3 26 0.1 32.1
03:40 1020 30.12 849 25.07 20.4 68.7 27 0.7 33.3
03:45 1020 30.12 849 25.07 20 68.1 26 0.1 32.3
03:50 1020 30.12 849 25.07 20.1 68.1 27 0.9 33.6
03:55 1020 30.12 849 25.07 19.7 67.4 27 0.2 32.3
04:00 1020 30.12 849 25.07 20 67.9 27 0.5 33
04:05 1020 30.12 849 25.07 19.7 67.5 28 1 33.9
04:10 1020 30.12 849 25.07 19.2 66.5 31 1.9 35.5
04:15 1020 30.12 849 25.07 18.5 65.3 31 1.3 34.4
04:20 1020 30.12 849 25.07 18.5 65.2 31 1.2 34.1
04:25 1020 30.12 849 25.07 18.5 65.3 31 1.2 34.1
04:30 1020 30.12 849 25.07 18.7 65.6 30 0.8 33.4
04:35 1020 30.12 849 25.07 18.9 66 31 1.4 34.5
04:40 1020 30.12 849 25.07 18.5 65.3 31 1.3 34.3
04:45 1020 30.12 849 25.07 18.2 64.8 32 1.4 34.6
04:50 1020 30.12 849 25.07 17.9 64.1 33 1.4 34.4
04:55 1020 30.12 850 25.1 17.9 64.2 32 0.9 33.6
05:00 1020 30.12 850 25.1 18.3 65 30 0.6 33
05:05 1020 30.12 850 25.1 18.6 65.4 31 1.3 34.3
05:10 1020 30.12 850 25.1 18.1 64.5 31 1 33.8
05:15 1020 30.12 850 25.1 18.1 64.6 30 0.6 33.1
05:20 1020 30.12 849 25.07 18.7 65.6 30 0.8 33.5
05:25 1020 30.12 849 25.07 18.5 65.3 31 1.3 34.3
05:30 1020 30.12 849 25.07 18.1 64.5 32 1.4 34.5
05:35 1020 30.12 849 25.07 17.4 63.3 34 1.7 35
05:40 1020 30.12 849 25.07 16.9 62.4 37 2 35.7
05:45 1020 30.12 849 25.07 16.8 62.2 32 0.3 32.5
05:50 1020 30.12 849 25.07 17.8 64 30 0.1 32.3
05:55 1020 30.12 849 25.07 18.5 65.3 29 0.5 32.8
06:00 1020 30.12 849 25.07 18.2 64.7 32 1.5 34.7
06:05 1020 30.12 849 25.07 17.5 63.6 33 1 33.9
06:10 1020 30.12 849 25.07 17.5 63.4 33 1.1 33.9
06:15 1020 30.12 849 25.07 17.5 63.4 33 1.3 34.4
06:20 1020 30.12 849 25.07 17.4 63.3 32 0.8 33.4
06:25 1020 30.12 849 25.07 17.8 64 31 0.8 33.4
06:30 1020 30.12 849 25.07 18 64.5 30 0.6 33
06:35 1020 30.12 849 25.07 18.4 65.1 30 0.6 33.1
06:40 1020 30.12 849 25.07 18.3 65 31 1.1 33.9
06:45 1020 30.12 849 25.07 18.2 64.8 30 0.7 33.3
06:50 1020 30.12 849 25.07 18.4 65 31 0.9 33.7
06:55 1020 30.12 849 25.07 18.2 64.8 31 1.1 34
07:00 1020 30.12 850 25.1 18 64.4 32 1.4 34.5
07:05 1020 30.12 850 25.1 17.9 64.3 32 0.9 33.7
07:10 1020 30.12 850 25.1 18.5 65.2 31 0.9 33.7
07:15 1020 30.12 850 25.1 19.3 66.7 27 0.1 32.2
07:20 1020 30.12 850 25.1 20 68 27 0.6 33.2
07:25 1020 30.12 850 25.1 20.1 68.2 28 1 33.8
07:30 1021 30.15 850 25.1 20 68.1 28 1 33.7
07:35 1021 30.15 850 25.1 20.3 68.6 27 0.9 33.6
07:40 1021 30.15 850 25.1 20.6 69 28 1.9 35.3
07:45 1021 30.15 850 25.1 20.4 68.8 34 4.1 39.4
07:50 1021 30.15 850 25.1 20.4 68.8 35 4.7 40.4
07:55 1021 30.15 850 25.1 20.1 68.2 31 2.5 36.5
08:00 1021 30.15 850 25.1 20 68 32 3 37.3
08:05 1021 30.15 850 25.1 20 67.9 35 4.3 39.8
08:10 1021 30.15 850 25.1 20.3 68.5 33 3.4 38.2
08:15 1021 30.15 850 25.1 20.4 68.7 35 4.5 40.1
08:20 1020 30.12 850 25.1 20.2 68.3 36 4.8 40.6
08:25 1020 30.12 850 25.1 19.8 67.6 37 5 41
08:30 1021 30.15 850 25.1 19.7 67.4 40 5.7 42.2
08:35 1021 30.15 850 25.1 20.3 68.6 35 4.6 40.3
08:40 1020 30.12 850 25.1 21.4 70.5 32 4.2 39.6
08:45 1021 30.15 850 25.1 22.1 71.8 33 5.4 41.8
08:50 1021 30.15 850 25.1 22 71.6 34 5.6 42
08:55 1021 30.15 850 25.1 22.5 72.6 32 5.1 41.1
09:00 1021 30.15 850 25.1 23.1 73.5 32 5.5 41.9
09:05 1021 30.15 850 25.1 23.7 74.6 30 5.3 41.5
09:10 1021 30.15 850 25.1 23.6 74.4 30 5.4 41.8
09:15 1021 30.15 850 25.1 23 73.5 33 6 42.8
09:20 1021 30.15 850 25.1 23.2 73.8 32 5.7 42.2
09:25 1020 30.12 850 25.1 23.5 74.2 30 5.1 41.1
09:30 1020 30.12 850 25.1 23.5 74.3 32 6 42.8
09:35 1020 30.12 850 25.1 24.2 75.5 30 5.6 42
09:40 1020 30.12 849 25.07 24.6 76.2 30 6.1 42.9
09:45 1020 30.12 849 25.07 25.2 77.3 29 6.1 42.9
09:50 1020 30.12 849 25.07 25.1 77.1 28 5.4 41.7
09:55 1020 30.12 849 25.07 25.9 78.6 27 5.5 41.9
10:00 1020 30.12 849 25.07 26.8 80.2 25 5.2 41.4
10:05 1020 30.12 849 25.07 27.4 81.3 25 5.7 42.3
10:10 1020 30.12 849 25.07 27.5 81.5 25 6.1 43
10:15 1020 30.12 849 25.07 27.9 82.3 23 5.1 41.2
10:20 1020 30.12 849 25.07 27.8 82 24 5.8 42.5
10:25 1020 30.12 849 25.07 28.3 82.9 23 5.6 42.1
10:30 1020 30.12 849 25.07 28.4 83.2 24 6.1 43
10:35 1020 30.12 849 25.07 28.3 82.9 24 5.9 42.6
10:40 1020 30.12 849 25.07 27.7 81.8 26 6.5 43.7
10:45 1020 30.12 849 25.07 27.7 81.8 25 6.3 43.3
10:50 1020 30.12 849 25.07 27.8 82 25 6.3 43.3
10:55 1020 30.12 849 25.07 27.9 82.1 25 6.1 43
11:00 1020 30.12 849 25.07 27.4 81.4 28 7.7 45.8
11:05 1020 30.12 849 25.07 26.6 79.8 26 5.8 42.4
11:10 1020 30.12 849 25.07 27.1 80.8 25 5.6 42.1
11:15 1020 30.12 849 25.07 27.7 81.8 23 4.7 40.5
11:20 1020 30.12 849 25.07 27 80.6 25 5.6 42.1
11:25 1020 30.12 849 25.07 26.4 79.5 24 4.4 40
11:30 1020 30.12 849 25.07 26.5 79.7 25 5.1 41.1
11:35 1020 30.12 849 25.07 27.3 81.1 22 4 39.2
11:40 1020 30.12 849 25.07 28.4 83.1 21 4.4 39.8
11:45 1020 30.12 849 25.07 27.7 81.9 21 3.9 39
11:50 1020 30.12 849 25.07 28.1 82.6 20 3.5 38.4
11:55 1020 30.12 849 25.07 28.4 83 22 4.9 40.8
12:00 1020 30.12 849 25.07 29.1 84.5 21 4.6 40.3
12:05 1020 30.12 849 25.07 30 85.9 19 4.1 39.3
12:10 1020 30.12 849 25.07 29.9 85.8 19 4 39.1
12:15 1020 30.12 849 25.07 30 85.9 21 5.3 41.6
12:20 1020 30.12 849 25.07 29.3 84.7 21 5.1 41.2
12:25 1020 30.12 849 25.07 29 84.1 20 4.4 40
12:30 1020 30.12 849 25.07 29.7 85.5 21 5.1 41.2
12:35 1020 30.12 849 25.07 29 84.2 21 5 40.9
12:40 1020 30.12 849 25.07 29.3 84.7 20 4.2 39.5
12:45 1020 30.12 849 25.07 29.1 84.4 20 4.5 40.1
12:50 1020 30.12 849 25.07 29.3 84.7 21 5.1 41.2
12:55 1020 30.12 849 25.07 29.6 85.2 20 4.2 39.6
13:00 1019 30.09 849 25.07 29.8 85.6 19 4.4 39.9
13:05 1019 30.09 849 25.07 30.4 86.7 19 4.4 39.9
13:10 1019 30.09 849 25.07 31.4 88.6 18 4.7 40.4
13:15 1019 30.09 849 25.07 30.9 87.5 19 5 41
13:20 1019 30.09 848 25.04 30.4 86.8 19 4.6 40.2
13:25 1019 30.09 848 25.04 30.9 87.6 18 4.3 39.7
13:30 1019 30.09 848 25.04 32.2 90 17 4.2 39.5
13:35 1019 30.09 848 25.04 32.7 90.8 18 5.5 41.9
13:40 1019 30.09 848 25.04 32.8 91.1 17 5.1 41.2
13:45 1019 30.09 848 25.04 32.9 91.3 17 4.9 40.9
13:50 1019 30.09 848 25.04 32.8 91.1 19 6.6 43.9
13:55 1019 30.09 848 25.04 32.8 91 20 7.1 44.9
14:00 1019 30.09 848 25.04 32.6 90.6 16 3.5 38.4
14:05 1019 30.09 848 25.04 33 91.5 18 5.8 42.4
14:10 1019 30.09 848 25.04 34.1 93.5 18 6.5 43.7
14:15 1018 30.06 848 25.04 34.2 93.6 15 4.5 40
14:20 1018 30.06 848 25.04 34.8 94.6 15 4.8 40.6
14:25 1018 30.06 848 25.04 35.2 95.4 14 4.2 39.6
14:30 1018 30.06 848 25.04 35.3 95.6 15 4.8 40.7
14:35 1018 30.06 847 25.01 36.1 96.9 13 4 39.2
14:40 1018 30.06 847 25.01 37 98.6 12 3.2 37.7
14:45 1018 30.06 847 25.01 37.2 99 11 2.6 36.8
14:50 1018 30.06 847 25.01 36.7 98 11 2.4 36.2
14:55 1018 30.06 847 25.01 36.2 97.2 11 1.4 34.5
15:00 1018 30.06 847 25.01 36.3 97.3 11 1.7 35
15:05 1018 30.06 847 25.01 36.1 97 11 1.3 34.3
15:10 1018 30.06 847 25.01 36.7 98 10 0.9 33.7
15:15 1018 30.06 847 25.01 36.4 97.5 10 0.1 32.2
15:20 1018 30.06 847 25.01 36.4 97.6 11 2.1 35.8
15:25 1018 30.06 847 25.01 36.3 97.4 12 3.4 38.2
15:30 1018 30.06 847 25.01 36.3 97.4 10 0.5 33
15:35 1018 30.06 847 25.01 36 96.7 11 0.7 33.3
15:40 1018 30.06 847 25.01 35.9 96.5 11 1.5 34.7
15:45 1018 30.06 847 25.01 35.8 96.5 9 -2.1 28.3
15:50 1018 30.06 847 25.01 35.8 96.4 10 0.5 32.9
15:55 1018 30.06 847 25.01 35.5 95.9 11 1.3 34.4
16:00 1018 30.06 847 25.01 35.5 95.9 11 1.4 34.5
16:05 1017 30.03 847 25.01 35.6 96 10 -0.3 31.4
16:10 1017 30.03 847 25.01 35.5 95.8 8 -3.1 26.4
16:15 1017 30.03 846 24.98 36 96.7 10 0.3 32.6
16:20 1017 30.03 846 24.98 36 96.7 7 -5.6 21.9
16:25 1017 30.03 846 24.98 36.2 97.1 7 -4.8 23.3
16:30 1017 30.03 846 24.98 36.1 96.9 9 -1.4 29.4
16:35 1017 30.03 846 24.98 35.2 95.3 10 -1.1 29.9
16:40 1017 30.03 846 24.98 35.5 95.9 9 -2.2 28.1
16:45 1017 30.03 846 24.98 35.5 95.9 10 -1 30.2
16:50 1017 30.03 846 24.98 35.8 96.5 9 -1.6 29.1
16:55 1017 30.03 846 24.98 35.5 96 10 -0.6 31
17:00 1017 30.03 846 24.98 35.1 95.2 10 -0.9 30.4
17:05 1017 30.03 846 24.98 34.9 94.7 11 0.8 33.5
17:10 1017 30.03 846 24.98 34.9 94.8 10 -0.3 31.5
17:15 1017 30.03 846 24.98 34.9 94.9 10 -0.7 30.7
17:20 1017 30.03 846 24.98 34.8 94.6 11 0.7 33.3
17:25 1017 30.03 846 24.98 34.6 94.2 15 4.3 39.8
17:30 1017 30.03 846 24.98 34.3 93.8 12 1.4 34.6
17:35 1017 30.03 846 24.98 34.4 94 12 1.2 34.1
17:40 1017 30.03 846 24.98 34.9 94.9 12 2 35.6
17:45 1017 30.03 846 24.98 35.5 95.9 12 2 35.7
17:50 1017 30.03 846 24.98 35.2 95.3 10 -0.2 31.7
17:55 1017 30.03 846 24.98 34.8 94.7 13 2.4 36.3
18:00 1017 30.03 846 24.98 34.6 94.3 12 1.3 34.4
18:05 1017 30.03 846 24.98 34.7 94.5 13 2.3 36.1
18:10 1017 30.03 846 24.98 34.4 94 14 3.7 38.7
18:15 1017 30.03 846 24.98 34.2 93.6 13 2 35.7
18:20 1017 30.03 846 24.98 34.2 93.5 12 1.4 34.5
18:25 1017 30.03 846 24.98 34 93.3 17 5.8 42.4
18:30 1017 30.03 846 24.98 33.9 92.9 14 2.8 37
18:35 1017 30.03 846 24.98 33.9 92.9 18 6.5 43.7
18:40 1017 30.03 846 24.98 32.8 91.1 26 11 51.7
18:45 1017 30.03 846 24.98 30.7 87.3 26 9.7 49.4
18:50 1017 30.03 846 24.98 30.5 86.9 22 6.7 44.1
18:55 1017 30.03 846 24.98 30.5 86.9 25 8.6 47.5
19:00 1017 30.03 846 24.98 30.2 86.4 22 6.6 43.9
19:05 1017 30.03 846 24.98 29.9 85.7 22 6.5 43.7
19:10 1017 30.03 846 24.98 29.9 85.7 23 6.8 44.2
19:15 1017 30.03 846 24.98 30 85.9 21 5.4 41.7
19:20 1017 30.03 847 25.01 30.3 86.5 20 5.4 41.7
19:25 1017 30.03 847 25.01 30.4 86.7 15 0.9 33.6
19:30 1018 30.06 847 25.01 30.8 87.4 14 0.4 32.6
19:35 1018 30.06 847 25.01 30.8 87.4 14 0.4 32.8
19:40 1018 30.06 847 25.01 30.5 87 14 0.2 32.3
19:45 1018 30.06 848 25.04 30.4 86.6 15 0.8 33.4
19:50 1018 30.06 848 25.04 30.1 86.1 15 0.8 33.4
19:55 1019 30.09 848 25.04 29.9 85.8 15 0.4 32.8
20:00 1019 30.09 848 25.04 29.9 85.8 15 0.6 33.1
20:05 1019 30.09 848 25.04 29.8 85.6 15 1 33.8
20:10 1019 30.09 848 25.04 29.5 85 17 2 35.5
20:15 1019 30.09 848 25.04 29 84.1 18 2.6 36.6
20:20 1019 30.09 848 25.04 28.5 83.3 19 3.1 37.5
20:25 1018 30.06 848 25.04 28.2 82.8 18 1.6 34.9
20:30 1018 30.06 848 25.04 28.5 83.4 18 2.3 36.2
20:35 1019 30.09 848 25.04 28.5 83.3 18 2.2 36
20:40 1019 30.09 848 25.04 28.1 82.7 19 2.9 37.2
20:45 1019 30.09 848 25.04 27.9 82.2 20 2.8 37.1
20:50 1019 30.09 848 25.04 27.7 81.9 20 3.3 38
20:55 1019 30.09 848 25.04 27.6 81.7 20 3 37.3
21:00 1019 30.09 848 25.04 27.5 81.4 20 2.7 36.9
21:05 1019 30.09 848 25.04 27.3 81.1 21 3.3 38
21:10 1019 30.09 848 25.04 26.9 80.4 23 4.1 39.4
21:15 1019 30.09 848 25.04 26.2 79.1 24 4 39.2
21:20 1019 30.09 849 25.07 25.7 78.3 23 3.5 38.4
21:25 1020 30.12 849 25.07 25.8 78.4 22 3 37.5
21:30 1020 30.12 849 25.07 25.9 78.5 23 3.5 38.3
21:35 1020 30.12 849 25.07 25.7 78.2 23 3.4 38.2
21:40 1020 30.12 849 25.07 25.5 78 23 3.2 37.7
21:45 1020 30.12 849 25.07 25.5 77.8 24 3.5 38.2
21:50 1020 30.12 849 25.07 25.3 77.5 24 3.3 37.9
21:55 1020 30.12 849 25.07 25.2 77.3 26 4.5 40
22:00 1020 30.12 849 25.07 24.6 76.3 27 4.7 40.5
22:05 1020 30.12 849 25.07 24.1 75.4 28 4.7 40.4
22:10 1020 30.12 849 25.07 23.7 74.6 29 4.7 40.4
22:15 1020 30.12 849 25.07 23.6 74.4 28 4.2 39.6
22:20 1020 30.12 849 25.07 23.3 73.9 30 4.8 40.7
22:25 1020 30.12 849 25.07 23.1 73.5 29 4.3 39.7
22:30 1019 30.09 849 25.07 22.7 72.8 28 3.7 38.6
22:35 1019 30.09 849 25.07 22.8 73 28 3.7 38.6
22:40 1019 30.09 848 25.04 22.8 73 28 3.7 38.6
22:45 1019 30.09 848 25.04 22.9 73.2 27 3.2 37.7
22:50 1019 30.09 848 25.04 23.3 74 26 3 37.5
22:55 1019 30.09 848 25.04 23.7 74.6 25 2.7 36.8
23:00 1019 30.09 848 25.04 23.8 74.8 26 3.2 37.7
23:05 1019 30.09 848 25.04 23.2 73.8 27 3.4 38.2
23:10 1019 30.09 848 25.04 22.5 72.5 29 3.6 38.4
23:15 1019 30.09 848 25.04 22.1 71.8 29 3.5 38.3
23:20 1019 30.09 848 25.04 22 71.5 28 2.8 37.1
23:25 1019 30.09 848 25.04 22.4 72.3 28 3 37.4
23:30 1019 30.09 848 25.04 22.1 71.8 29 3.5 38.2
23:35 1019 30.09 848 25.04 21.9 71.4 31 4.3 39.7
23:40 1019 30.09 848 25.04 21.7 71.1 29 3.1 37.6
23:45 1019 30.09 848 25.04 22.1 71.8 29 3.3 37.9
23:50 1019 30.09 848 25.04 22.2 71.9 28 3.3 37.9
23:55 1019 30.09 848 25.04 22 71.6 30 3.8 38.8
24:00 1018 30.06 848 25.04 21.3 70.4 31 3.6 38.5